createdAt,value
2018-04-24T00:00:52.297Z,12.67
2018-04-24T00:03:28.047Z,12.73
2018-04-24T00:06:03.083Z,13.17
2018-04-24T00:08:37.859Z,12.20
2018-04-24T00:11:12.886Z,15.17
2018-04-24T00:13:47.601Z,16.33
2018-04-24T00:16:21.948Z,13.87
2018-04-24T00:18:56.305Z,14.17
2018-04-24T00:21:31.518Z,14.77
2018-04-24T00:24:05.779Z,16.80
2018-04-24T00:26:40.170Z,11.33
2018-04-24T00:29:14.927Z,12.70
2018-04-24T00:31:49.314Z,12.57
2018-04-24T00:34:24.401Z,14.37
2018-04-24T00:36:58.588Z,13.30
2018-04-24T00:39:33.604Z,17.20
2018-04-24T00:42:08.013Z,12.83
2018-04-24T00:44:43.102Z,18.03
2018-04-24T00:47:17.463Z,12.10
2018-04-24T00:49:51.896Z,12.43
2018-04-24T00:52:26.174Z,16.03
2018-04-24T00:55:00.625Z,14.77
2018-04-24T00:57:34.863Z,15.37
2018-04-24T01:00:09.253Z,14.00
2018-04-24T01:02:43.552Z,13.67
2018-04-24T01:05:17.906Z,12.63
2018-04-24T01:07:52.289Z,15.77
2018-04-24T01:10:27.470Z,16.10
2018-04-24T01:13:02.067Z,13.30
2018-04-24T01:15:36.468Z,13.80
2018-04-24T01:18:10.706Z,14.67
2018-04-24T01:20:45.775Z,18.13
2018-04-24T01:23:20.012Z,12.03
2018-04-24T01:25:54.474Z,15.13
2018-04-24T01:28:28.859Z,15.03
2018-04-24T01:31:03.509Z,17.27
2018-04-24T01:33:37.806Z,15.10
2018-04-24T01:36:12.138Z,13.00
2018-04-24T01:38:46.422Z,13.20
2018-04-24T01:41:21.718Z,12.60
2018-04-24T01:43:56.085Z,14.70
2018-04-24T01:46:30.519Z,15.20
2018-04-24T01:49:04.784Z,12.27
2018-04-24T01:51:39.804Z,13.60
2018-04-24T01:54:14.148Z,11.10
2018-04-24T01:56:48.939Z,15.03
2018-04-24T01:59:23.858Z,14.73
2018-04-24T02:01:58.289Z,16.07
2018-04-24T02:04:32.513Z,13.77
2018-04-24T02:07:06.797Z,12.27
2018-04-24T02:09:41.552Z,16.73
2018-04-24T02:12:15.839Z,12.13
2018-04-24T02:14:50.469Z,10.07
2018-04-24T02:17:24.813Z,11.77
2018-04-24T02:20:00.077Z,12.43
2018-04-24T02:22:34.372Z,9.53
2018-04-24T02:25:09.459Z,10.40
2018-04-24T02:27:43.618Z,9.60
2018-04-24T02:30:18.044Z,10.33
2018-04-24T02:32:53.157Z,10.57
2018-04-24T02:35:27.811Z,11.30
2018-04-24T02:38:02.276Z,12.13
2018-04-24T02:40:37.396Z,10.50
2018-04-24T02:43:11.641Z,9.00
2018-04-24T02:45:46.348Z,9.90
2018-04-24T02:48:21.632Z,15.37
2018-04-24T02:50:56.133Z,12.37
2018-04-24T02:53:31.053Z,12.27
2018-04-24T02:56:05.688Z,12.03
2018-04-24T02:58:40.080Z,12.10
2018-04-24T03:01:14.298Z,12.47
2018-04-24T03:03:48.595Z,9.97
2018-04-24T03:06:23.119Z,12.30
2018-04-24T03:08:57.567Z,12.07
2018-04-24T03:11:32.036Z,15.00
2018-04-24T03:14:06.260Z,12.17
2018-04-24T03:16:40.864Z,13.07
2018-04-24T03:19:15.227Z,12.03
2018-04-24T03:21:50.265Z,14.57
2018-04-24T03:24:24.787Z,8.53
2018-04-24T03:27:00.135Z,10.57
2018-04-24T03:29:35.185Z,7.43
2018-04-24T03:32:10.345Z,11.40
2018-04-24T03:34:44.653Z,40.03
2018-04-24T03:37:19.260Z,10.60
2018-04-24T03:39:53.582Z,6.77
2018-04-24T03:42:28.905Z,6.90
2018-04-24T03:45:04.075Z,4.47
2018-04-24T03:47:38.461Z,4.37
2018-04-24T03:50:13.639Z,4.90
2018-04-24T03:52:48.041Z,5.40
2018-04-24T03:55:22.282Z,5.73
2018-04-24T03:57:57.048Z,10.30
2018-04-24T04:00:31.370Z,7.40
2018-04-24T04:03:06.656Z,8.70
2018-04-24T04:05:41.007Z,12.90
2018-04-24T04:08:15.743Z,10.47
2018-04-24T04:10:50.192Z,10.17
2018-04-24T04:13:24.467Z,8.43
2018-04-24T04:15:59.455Z,8.30
2018-04-24T04:18:45.616Z,7.00
2018-04-24T04:21:31.943Z,9.27
2018-04-24T04:24:18.960Z,10.97
2018-04-24T04:26:54.009Z,10.70
2018-04-24T04:29:28.788Z,11.30
2018-04-24T04:32:03.138Z,10.30
2018-04-24T04:34:37.554Z,9.43
2018-04-24T04:37:12.104Z,7.93
2018-04-24T04:39:46.339Z,9.00
2018-04-24T04:42:20.596Z,10.27
2018-04-24T04:44:54.986Z,13.53
2018-04-24T04:47:29.220Z,12.40
2018-04-24T04:50:03.619Z,13.07
2018-04-24T04:52:37.837Z,13.53
2018-04-24T04:55:12.856Z,15.53
2018-04-24T04:57:47.303Z,10.70
2018-04-24T05:00:21.700Z,13.00
2018-04-24T05:02:56.328Z,12.73
2018-04-24T05:05:30.711Z,13.20
2018-04-24T05:08:05.423Z,15.50
2018-04-24T05:10:39.809Z,16.60
2018-04-24T05:13:14.892Z,22.13
2018-04-24T05:15:50.247Z,17.27
2018-04-24T05:18:28.866Z,21.50
2018-04-24T05:21:04.232Z,16.40
2018-04-24T05:23:38.415Z,14.83
2018-04-24T05:26:12.771Z,17.67
2018-04-24T05:28:47.029Z,19.03
2018-04-24T05:31:21.276Z,20.50
2018-04-24T05:33:55.578Z,15.03
2018-04-24T05:36:30.857Z,17.90
2018-04-24T05:39:06.294Z,16.17
2018-04-24T05:41:41.219Z,18.67
2018-04-24T05:44:16.666Z,18.93
2018-04-24T05:46:50.880Z,18.53
2018-04-24T05:49:25.567Z,20.40
2018-04-24T05:51:59.919Z,19.83
2018-04-24T05:54:34.603Z,23.43
2018-04-24T05:57:08.977Z,24.43
2018-04-24T05:59:43.607Z,28.37
2018-04-24T06:02:18.055Z,22.33
2018-04-24T06:04:53.371Z,24.90
2018-04-24T06:07:27.580Z,22.93
2018-04-24T06:10:02.083Z,20.90
2018-04-24T06:12:36.435Z,22.93
2018-04-24T06:15:10.832Z,22.97
2018-04-24T06:17:45.037Z,24.00
2018-04-24T06:20:20.492Z,23.27
2018-04-24T06:22:54.933Z,21.47
2018-04-24T06:25:30.236Z,22.13
2018-04-24T06:28:04.481Z,28.17
2018-04-24T06:30:39.588Z,20.10
2018-04-24T06:33:17.255Z,21.87
2018-04-24T06:35:51.542Z,19.77
2018-04-24T06:38:26.577Z,18.40
2018-04-24T06:41:00.933Z,23.23
2018-04-24T06:43:35.373Z,24.23
2018-04-24T06:46:10.022Z,19.77
2018-04-24T06:48:46.119Z,19.70
2018-04-24T06:51:20.550Z,20.87
2018-04-24T06:53:54.988Z,22.47
2018-04-24T06:56:29.154Z,20.57
2018-04-24T06:59:04.152Z,17.43
2018-04-24T07:01:38.303Z,27.63
2018-04-24T07:04:13.301Z,19.43
2018-04-24T07:06:47.531Z,17.37
2018-04-24T07:09:22.164Z,18.87
2018-04-24T07:11:56.415Z,22.33
2018-04-24T07:14:31.471Z,18.20
2018-04-24T07:17:05.873Z,19.90
2018-04-24T07:19:40.908Z,19.40
2018-04-24T07:22:15.189Z,17.07
2018-04-24T07:24:49.523Z,21.67
2018-04-24T07:27:23.799Z,17.47
2018-04-24T07:29:58.188Z,16.07
2018-04-24T07:32:32.725Z,15.37
2018-04-24T07:35:07.226Z,17.20
2018-04-24T07:37:41.559Z,17.00
2018-04-24T07:40:15.991Z,14.30
2018-04-24T07:42:50.371Z,18.50
2018-04-24T07:45:24.904Z,17.00
2018-04-24T07:47:59.948Z,15.07
2018-04-24T07:50:36.850Z,16.03
2018-04-24T07:53:11.455Z,15.30
2018-04-24T07:55:46.079Z,18.83
2018-04-24T07:58:20.547Z,13.97
2018-04-24T08:00:55.097Z,17.33
2018-04-24T08:03:29.500Z,14.50
2018-04-24T08:06:03.999Z,13.50
2018-04-24T08:08:38.164Z,15.60
2018-04-24T08:11:12.760Z,15.03
2018-04-24T08:13:47.090Z,10.53
2018-04-24T08:16:21.295Z,15.87
2018-04-24T08:18:56.369Z,14.37
2018-04-24T08:21:31.402Z,14.60
2018-04-24T08:24:05.771Z,13.63
2018-04-24T08:26:40.005Z,17.87
2018-04-24T08:29:14.307Z,11.97
2018-04-24T08:31:48.659Z,11.27
2018-04-24T08:34:23.720Z,11.03
2018-04-24T08:37:00.667Z,10.60
2018-04-24T08:39:35.236Z,10.20
2018-04-24T08:42:09.743Z,9.33
2018-04-24T08:44:44.115Z,11.67
2018-04-24T08:47:18.315Z,11.67
2018-04-24T08:49:52.622Z,12.00
2018-04-24T08:52:27.367Z,10.03
2018-04-24T08:55:01.803Z,10.27
2018-04-24T08:57:36.232Z,12.20
2018-04-24T09:00:11.308Z,8.23
2018-04-24T09:02:45.676Z,8.90
2018-04-24T09:05:20.995Z,7.63
2018-04-24T09:07:55.840Z,9.83
2018-04-24T09:10:30.871Z,7.00
2018-04-24T09:13:05.679Z,6.53
2018-04-24T09:15:39.957Z,6.93
2018-04-24T09:18:14.368Z,7.90
2018-04-24T09:20:48.639Z,8.23
2018-04-24T09:23:23.024Z,7.47
2018-04-24T09:25:57.493Z,6.90
2018-04-24T09:28:31.730Z,7.87
2018-04-24T09:31:06.067Z,10.23
2018-04-24T09:33:40.643Z,11.47
2018-04-24T09:36:14.948Z,8.07
2018-04-24T09:38:49.435Z,7.80
2018-04-24T09:41:23.640Z,7.63
2018-04-24T09:43:57.914Z,8.93
2018-04-24T09:46:32.228Z,9.10
2018-04-24T09:49:07.263Z,6.90
2018-04-24T09:51:41.853Z,6.47
2018-04-24T09:54:16.289Z,8.73
2018-04-24T09:56:51.259Z,5.20
2018-04-24T09:59:25.521Z,10.67
2018-04-24T10:01:59.945Z,5.33
2018-04-24T10:04:34.346Z,9.70
2018-04-24T10:07:08.668Z,10.13
2018-04-24T10:09:42.923Z,5.93
2018-04-24T10:12:17.263Z,5.50
2018-04-24T10:14:51.601Z,8.10
2018-04-24T10:17:25.971Z,5.23
2018-04-24T10:20:00.621Z,5.33
2018-04-24T10:22:34.999Z,7.30
2018-04-24T10:25:09.328Z,6.60
2018-04-24T10:27:43.638Z,4.47
2018-04-24T10:30:18.571Z,6.37
2018-04-24T10:32:53.597Z,6.47
2018-04-24T10:35:27.980Z,6.63
2018-04-24T10:38:02.317Z,6.67
2018-04-24T10:40:36.631Z,6.57
2018-04-24T10:43:11.047Z,5.13
2018-04-24T10:45:45.391Z,6.20
2018-04-24T10:48:19.907Z,4.93
2018-04-24T10:50:55.248Z,6.20
2018-04-24T10:53:29.545Z,5.73
2018-04-24T10:56:04.147Z,6.23
2018-04-24T10:58:38.359Z,4.53
2018-04-24T11:01:12.924Z,7.50
2018-04-24T11:03:47.330Z,5.07
2018-04-24T11:06:21.868Z,9.50
2018-04-24T11:08:56.880Z,6.43
2018-04-24T11:11:31.310Z,4.07
2018-04-24T11:14:05.662Z,5.03
2018-04-24T11:16:40.059Z,4.63
2018-04-24T11:19:14.311Z,6.60
2018-04-24T11:21:48.816Z,6.90
2018-04-24T11:24:23.205Z,6.30
2018-04-24T11:26:57.526Z,5.43
2018-04-24T11:29:32.650Z,5.53
2018-04-24T11:32:06.915Z,6.80
2018-04-24T11:34:41.167Z,8.10
2018-04-24T11:37:15.623Z,5.47
2018-04-24T11:39:50.617Z,6.73
2018-04-24T11:42:25.296Z,7.83
2018-04-24T11:44:59.633Z,5.17
2018-04-24T11:47:33.960Z,6.77
2018-04-24T11:50:08.346Z,4.87
2018-04-24T11:52:42.965Z,6.37
2018-04-24T11:55:18.119Z,7.23
2018-04-24T11:57:53.231Z,5.37
2018-04-24T12:00:27.633Z,6.13
2018-04-24T12:03:02.101Z,5.47
2018-04-24T12:05:38.093Z,6.70
2018-04-24T12:08:13.027Z,9.27
2018-04-24T12:10:47.297Z,6.50
2018-04-24T12:13:21.565Z,8.57
2018-04-24T12:15:55.837Z,5.50
2018-04-24T12:18:30.468Z,4.67
2018-04-24T12:21:05.924Z,4.23
2018-04-24T12:23:40.984Z,6.03
2018-04-24T12:26:16.167Z,5.80
2018-04-24T12:28:50.576Z,5.80
2018-04-24T12:31:25.547Z,4.20
2018-04-24T12:34:00.236Z,5.43
2018-04-24T12:36:34.523Z,7.83
2018-04-24T12:39:09.017Z,4.47
2018-04-24T12:41:43.327Z,6.30
2018-04-24T12:44:17.581Z,6.37
2018-04-24T12:46:52.557Z,10.23
2018-04-24T12:49:27.017Z,5.23
2018-04-24T12:52:01.206Z,7.10
2018-04-24T12:54:35.417Z,12.13
2018-04-24T12:57:09.833Z,6.60
2018-04-24T12:59:44.224Z,4.27
2018-04-24T13:02:19.208Z,6.33
2018-04-24T13:04:53.486Z,5.67
2018-04-24T13:07:27.747Z,5.23
2018-04-24T13:10:02.307Z,4.43
2018-04-24T13:12:36.555Z,7.40
2018-04-24T13:15:11.011Z,6.37
2018-04-24T13:17:45.593Z,4.90
2018-04-24T13:20:19.907Z,5.57
2018-04-24T13:22:55.383Z,4.13
2018-04-24T13:25:30.467Z,4.13
2018-04-24T13:28:04.670Z,6.43
2018-04-24T13:30:38.923Z,5.33
2018-04-24T13:33:13.514Z,3.83
2018-04-24T13:35:48.471Z,4.00
2018-04-24T13:38:22.822Z,9.20
2018-04-24T13:40:57.844Z,5.17
2018-04-24T13:43:32.360Z,8.57
2018-04-24T13:46:06.776Z,3.53
2018-04-24T13:48:42.484Z,8.57
2018-04-24T13:51:16.819Z,3.13
2018-04-24T13:53:51.465Z,2.97
2018-04-24T13:56:25.901Z,4.97
2018-04-24T13:59:00.690Z,7.37
2018-04-24T14:01:34.827Z,6.63
2018-04-24T14:04:09.143Z,3.10
2018-04-24T14:06:43.680Z,5.10
2018-04-24T14:09:18.102Z,5.10
2018-04-24T14:11:53.021Z,7.27
2018-04-24T14:14:27.467Z,7.10
2018-04-24T14:17:02.600Z,3.43
2018-04-24T14:19:37.003Z,7.53
2018-04-24T14:22:11.258Z,4.40
2018-04-24T14:24:45.965Z,4.83
2018-04-24T14:27:20.506Z,6.60
2018-04-24T14:29:54.958Z,5.70
2018-04-24T14:32:29.912Z,5.13
2018-04-24T14:35:05.673Z,6.13
2018-04-24T14:37:39.891Z,5.30
2018-04-24T14:40:14.322Z,4.13
2018-04-24T14:42:48.730Z,6.60
2018-04-24T14:45:23.126Z,6.63
2018-04-24T14:47:57.488Z,5.30
2018-04-24T14:50:32.569Z,6.97
2018-04-24T14:53:07.361Z,7.77
2018-04-24T14:55:41.962Z,4.93
2018-04-24T14:58:18.056Z,5.03
2018-04-24T15:00:52.562Z,7.63
2018-04-24T15:03:26.936Z,5.17
2018-04-24T15:06:01.628Z,6.33
2018-04-24T15:08:36.687Z,6.23
2018-04-24T15:11:11.120Z,3.80
2018-04-24T15:13:45.502Z,4.27
2018-04-24T15:16:19.819Z,10.13
2018-04-24T15:18:54.118Z,2.87
2018-04-24T15:21:28.484Z,5.73
2018-04-24T15:24:02.871Z,6.00
2018-04-24T15:26:37.412Z,4.30
2018-04-24T15:29:12.442Z,3.77
2018-04-24T15:31:47.054Z,5.43
2018-04-24T15:34:22.103Z,6.87
2018-04-24T15:36:56.263Z,6.10
2018-04-24T15:39:31.224Z,6.47
2018-04-24T15:42:06.339Z,5.90
2018-04-24T15:44:40.658Z,3.83
2018-04-24T15:47:15.255Z,8.17
2018-04-24T15:49:50.231Z,6.47
2018-04-24T15:52:24.459Z,4.57
2018-04-24T15:54:58.876Z,5.73
2018-04-24T15:57:43.777Z,3.67
2018-04-24T16:00:19.370Z,4.27
2018-04-24T16:02:54.679Z,5.67
2018-04-24T16:05:29.539Z,6.93
2018-04-24T16:08:04.520Z,6.80
2018-04-24T16:10:38.936Z,8.00
2018-04-24T16:13:13.206Z,6.57
2018-04-24T16:15:47.634Z,5.03
2018-04-24T16:18:21.877Z,5.63
2018-04-24T16:20:57.221Z,4.57
2018-04-24T16:23:31.668Z,6.37
2018-04-24T16:26:06.067Z,4.93
2018-04-24T16:28:40.452Z,4.03
2018-04-24T16:31:14.746Z,7.90
2018-04-24T16:33:48.967Z,6.00
2018-04-24T16:36:24.471Z,7.43
2018-04-24T16:38:58.953Z,9.63
2018-04-24T16:41:33.173Z,5.40
2018-04-24T16:44:07.527Z,3.50
2018-04-24T16:46:41.952Z,6.13
2018-04-24T16:49:16.671Z,4.37
2018-04-24T16:51:51.896Z,4.63
2018-04-24T16:54:26.566Z,5.23
2018-04-24T16:57:01.567Z,3.30
2018-04-24T16:59:36.101Z,4.10
2018-04-24T17:02:10.501Z,6.87
2018-04-24T17:04:45.431Z,5.83
2018-04-24T17:07:19.988Z,6.47
2018-04-24T17:09:55.378Z,4.90
2018-04-24T17:12:29.730Z,6.23
2018-04-24T17:15:04.383Z,8.77
2018-04-24T17:17:38.934Z,5.57
2018-04-24T17:20:14.332Z,4.57
2018-04-24T17:22:49.678Z,4.93
2018-04-24T17:25:24.993Z,3.80
2018-04-24T17:27:59.620Z,5.00
2018-04-24T17:30:34.463Z,6.13
2018-04-24T17:33:09.207Z,6.87
2018-04-24T17:35:43.602Z,7.17
2018-04-24T17:38:18.643Z,6.70
2018-04-24T17:40:54.557Z,5.17
2018-04-24T17:43:29.529Z,7.67
2018-04-24T17:46:04.103Z,7.83
2018-04-24T17:48:40.258Z,10.37
2018-04-24T17:51:16.797Z,7.73
2018-04-24T17:53:51.968Z,3.53
2018-04-24T17:56:26.189Z,4.07
2018-04-24T17:59:00.424Z,5.07
2018-04-24T18:01:35.107Z,4.40
2018-04-24T18:04:09.418Z,4.70
2018-04-24T18:06:43.622Z,3.60
2018-04-24T18:09:20.251Z,4.50
2018-04-24T18:12:07.282Z,7.77
2018-04-24T18:14:43.757Z,7.33
2018-04-24T18:17:18.595Z,5.43
2018-04-24T18:19:53.623Z,4.20
2018-04-24T18:22:28.281Z,5.60
2018-04-24T18:25:02.595Z,6.87
2018-04-24T18:27:36.996Z,3.17
2018-04-24T18:30:11.416Z,8.40
2018-04-24T18:32:46.073Z,8.13
2018-04-24T18:35:21.172Z,5.60
2018-04-24T18:37:56.844Z,6.87
2018-04-24T18:40:32.325Z,3.33
2018-04-24T18:43:08.350Z,5.63
2018-04-24T18:45:43.643Z,6.50
2018-04-24T18:48:18.851Z,4.60
2018-04-24T18:50:53.299Z,6.60
2018-04-24T18:53:29.230Z,5.70
2018-04-24T18:56:03.458Z,3.77
2018-04-24T18:58:38.371Z,6.10
2018-04-24T19:01:12.774Z,7.00
2018-04-24T19:03:47.201Z,6.77
2018-04-24T19:06:21.419Z,5.40
2018-04-24T19:08:56.496Z,3.33
2018-04-24T19:11:30.859Z,5.30
2018-04-24T19:14:11.489Z,4.67
2018-04-24T19:16:45.659Z,3.37
2018-04-24T19:19:25.771Z,6.73
2018-04-24T19:22:00.705Z,4.80
2018-04-24T19:24:41.243Z,3.30
2018-04-24T19:27:15.418Z,4.27
2018-04-24T19:29:49.790Z,5.23
2018-04-24T19:32:30.556Z,4.13
2018-04-24T19:35:04.737Z,6.27
2018-04-24T19:37:39.804Z,4.80
2018-04-24T19:40:13.844Z,5.63
2018-04-24T19:42:43.043Z,5.10
2018-04-24T19:45:12.215Z,6.07
2018-04-24T19:47:40.501Z,4.83
2018-04-24T19:50:14.525Z,4.60
2018-04-24T19:52:43.685Z,6.90
2018-04-24T19:55:17.560Z,5.10
2018-04-24T19:57:45.857Z,5.53
2018-04-24T20:00:14.168Z,5.20
2018-04-24T20:02:43.300Z,6.13
2018-04-24T20:05:11.585Z,4.67
2018-04-24T20:07:39.959Z,4.47
2018-04-24T20:10:08.288Z,6.83
2018-04-24T20:12:36.608Z,6.13
2018-04-24T20:15:04.928Z,4.27
2018-04-24T20:17:33.223Z,5.23
2018-04-24T20:20:02.284Z,6.97
2018-04-24T20:22:30.596Z,5.17
2018-04-24T20:24:59.664Z,5.43
2018-04-24T20:27:27.960Z,7.40
2018-04-24T20:29:57.063Z,9.37
2018-04-24T20:32:26.228Z,4.90
2018-04-24T20:34:55.214Z,11.03
2018-04-24T20:37:23.536Z,8.13
2018-04-24T20:39:51.840Z,9.50
2018-04-24T20:42:20.154Z,10.20
2018-04-24T20:44:48.464Z,4.67
2018-04-24T20:47:16.762Z,8.03
2018-04-24T20:49:45.099Z,5.40
2018-04-24T20:52:13.415Z,5.10
2018-04-24T20:54:41.733Z,8.03
2018-04-24T20:57:10.012Z,6.07
2018-04-24T20:59:39.088Z,5.10
2018-04-24T21:02:07.392Z,11.10
2018-04-24T21:04:36.451Z,6.17
2018-04-24T21:07:04.758Z,7.73
2018-04-24T21:09:33.809Z,8.10
2018-04-24T21:12:02.204Z,6.30
2018-04-24T21:14:30.492Z,6.80
2018-04-24T21:16:58.813Z,5.97
2018-04-24T21:19:27.169Z,11.00
2018-04-24T21:21:55.449Z,6.20
2018-04-24T21:24:23.741Z,9.63
2018-04-24T21:26:52.052Z,7.23
2018-04-24T21:29:20.387Z,6.93
2018-04-24T21:31:48.673Z,4.50
2018-04-24T21:34:16.994Z,6.03
2018-04-24T21:36:45.283Z,7.33
2018-04-24T21:39:14.353Z,6.60
2018-04-24T21:41:42.647Z,6.23
2018-04-24T21:44:11.704Z,8.03
2018-04-24T21:46:42.031Z,5.53
2018-04-24T21:49:10.330Z,5.83
2018-04-24T21:51:40.096Z,8.43
2018-04-24T21:54:08.397Z,7.50
2018-04-24T21:56:36.671Z,5.07
2018-04-24T21:59:04.971Z,7.03
2018-04-24T22:01:34.220Z,5.30
2018-04-24T22:04:02.504Z,7.93
2018-04-24T22:06:31.073Z,9.03
2018-04-24T22:08:59.371Z,12.73
2018-04-24T22:11:27.647Z,9.87
2018-04-24T22:13:55.951Z,6.47
2018-04-24T22:16:25.516Z,7.20
2018-04-24T22:18:53.811Z,6.50
2018-04-24T22:21:22.900Z,7.43
2018-04-24T22:23:52.835Z,9.47
2018-04-24T22:26:22.526Z,6.37
2018-04-24T22:28:52.363Z,7.93
2018-04-24T22:31:21.676Z,8.00
2018-04-24T22:33:50.532Z,7.03
2018-04-24T22:36:20.184Z,7.57
2018-04-24T22:38:48.994Z,7.40
2018-04-24T22:41:17.790Z,8.37
2018-04-24T22:43:46.287Z,5.40
2018-04-24T22:46:14.648Z,9.50
2018-04-24T22:48:42.953Z,8.40
2018-04-24T22:51:11.235Z,6.63
2018-04-24T22:53:40.320Z,11.00
2018-04-24T22:56:08.632Z,9.60
2018-04-24T22:58:37.165Z,7.17
2018-04-24T23:01:05.449Z,9.93
2018-04-24T23:03:34.517Z,8.80
2018-04-24T23:06:02.825Z,6.40
2018-04-24T23:08:31.117Z,9.37
2018-04-24T23:11:12.478Z,5.87
2018-04-24T23:13:52.584Z,6.70
2018-04-24T23:16:33.059Z,8.10
2018-04-24T23:19:13.243Z,5.40
2018-04-24T23:21:41.878Z,6.07
2018-04-24T23:24:10.171Z,4.70
2018-04-24T23:26:38.461Z,5.57
2018-04-24T23:29:06.775Z,9.63
2018-04-24T23:31:35.852Z,6.80
2018-04-24T23:34:05.782Z,13.53
2018-04-24T23:36:34.821Z,8.13
2018-04-24T23:39:03.120Z,7.93
2018-04-24T23:41:31.429Z,6.83
2018-04-24T23:44:00.535Z,7.63
2018-04-24T23:46:30.257Z,6.87
2018-04-24T23:48:58.568Z,6.90
2018-04-24T23:51:26.871Z,9.20
2018-04-24T23:53:55.175Z,7.33
2018-04-24T23:56:23.473Z,8.50
2018-04-24T23:58:51.787Z,8.03
